This is the latest recevied weather packets stored in our database for station/object DB0LS-15. If no packets are shown the sender has not sent any weather packets the latest 10 day(s).
| Time | Temp. | Humidity | Pressure | Rain* | Wind** | Luminosity | Snow |
|---|---|---|---|---|---|---|---|
| 1777705243 | 17.22° C | 53% | 1006.5 hPa | 0 mm | - | - | - |
| 1777704639 | 16.67° C | 54% | 1006.5 hPa | 0 mm | - | - | - |
| 1777704035 | 16.11° C | 54% | 1006.5 hPa | 0 mm | - | - | - |
| 1777703432 | 16.11° C | 56% | 1006.7 hPa | 0 mm | - | - | - |
| 1777702828 | 15.56° C | 57% | 1006.8 hPa | 0 mm | - | - | - |
| 1777702224 | 15° C | 58% | 1006.7 hPa | 0 mm | - | - | - |
| 1777701620 | 14.44° C | 60% | 1006.6 hPa | 0 mm | - | - | - |
| 1777701017 | 13.89° C | 62% | 1006.8 hPa | 0 mm | - | - | - |
| 1777700473 | 13.89° C | 63% | 1006.8 hPa | 0 mm | - | - | - |
| 1777699869 | 13.33° C | 63% | 1006.7 hPa | 0 mm | - | - | - |
| 1777699266 | 12.78° C | 65% | 1006.7 hPa | 0 mm | - | - | - |
| 1777698662 | 12.78° C | 65% | 1006.7 hPa | 0 mm | - | - | - |
| 1777698058 | 12.22° C | 68% | 1006.6 hPa | 0 mm | - | - | - |
| 1777697454 | 11.67° C | 70% | 1006.7 hPa | 0 mm | - | - | - |
| 1777696851 | 10.56° C | 72% | 1006.8 hPa | 0 mm | - | - | - |
| 1777696247 | 10.56° C | 73% | 1006.7 hPa | 0 mm | - | - | - |
| 1777695643 | 10° C | 74% | 1006.7 hPa | 0 mm | - | - | - |
| 1777695039 | 10° C | 73% | 1006.7 hPa | 0 mm | - | - | - |
| 1777694436 | 10.56° C | 73% | 1006.7 hPa | 0 mm | - | - | - |
| 1777693832 | 10.56° C | 72% | 1006.6 hPa | 0 mm | - | - | - |
| 1777693227 | 10.56° C | 73% | 1006.7 hPa | 0 mm | - | - | - |
| 1777692624 | 10.56° C | 72% | 1006.7 hPa | 0 mm | - | - | - |
| 1777692020 | 11.11° C | 70% | 1006.7 hPa | 0 mm | - | - | - |
| 1777691416 | 11.11° C | 71% | 1006.8 hPa | 0 mm | - | - | - |
| 1777690872 | 10.56° C | 71% | 1006.8 hPa | 0 mm | - | - | - |
* Rain latest hour (hover to see other rain measurements)
** Current wind speed in m/s (hover to see current wind gust speed)